sensor_id;sensor_type;location;lat;lon;timestamp;temperature;humidity
59067;DHT22;44854;50.838;4.438;2024-01-30T00:01:52;11.70;99.90
59067;DHT22;44854;50.838;4.438;2024-01-30T00:04:18;11.60;99.90
59067;DHT22;44854;50.838;4.438;2024-01-30T00:06:44;11.70;99.90
59067;DHT22;44854;50.838;4.438;2024-01-30T00:09:10;11.60;99.90
59067;DHT22;44854;50.838;4.438;2024-01-30T00:11:39;11.60;99.90
59067;DHT22;44854;50.838;4.438;2024-01-30T00:14:05;11.60;99.90
59067;DHT22;44854;50.838;4.438;2024-01-30T00:16:33;11.60;99.90
59067;DHT22;44854;50.838;4.438;2024-01-30T00:18:59;11.50;99.90
59067;DHT22;44854;50.838;4.438;2024-01-30T00:21:29;11.70;99.90
59067;DHT22;44854;50.838;4.438;2024-01-30T00:23:54;11.60;99.90
59067;DHT22;44854;50.838;4.438;2024-01-30T00:26:20;11.50;99.90
59067;DHT22;44854;50.838;4.438;2024-01-30T00:28:46;11.50;99.90
59067;DHT22;44854;50.838;4.438;2024-01-30T00:31:12;11.60;99.90
59067;DHT22;44854;50.838;4.438;2024-01-30T00:33:41;11.70;99.90
59067;DHT22;44854;50.838;4.438;2024-01-30T00:36:08;11.80;99.90
59067;DHT22;44854;50.838;4.438;2024-01-30T00:38:34;11.70;99.90
59067;DHT22;44854;50.838;4.438;2024-01-30T00:41:01;11.80;99.90
59067;DHT22;44854;50.838;4.438;2024-01-30T00:43:31;11.80;99.90
59067;DHT22;44854;50.838;4.438;2024-01-30T00:45:57;11.80;99.90
59067;DHT22;44854;50.838;4.438;2024-01-30T00:48:23;11.90;99.90
59067;DHT22;44854;50.838;4.438;2024-01-30T00:50:49;12.10;99.90
59067;DHT22;44854;50.838;4.438;2024-01-30T00:53:15;12.00;99.90
59067;DHT22;44854;50.838;4.438;2024-01-30T00:55:46;12.00;99.90
59067;DHT22;44854;50.838;4.438;2024-01-30T00:58:12;11.90;99.90
59067;DHT22;44854;50.838;4.438;2024-01-30T01:00:38;12.00;99.90
59067;DHT22;44854;50.838;4.438;2024-01-30T01:03:04;12.00;99.90
59067;DHT22;44854;50.838;4.438;2024-01-30T01:05:30;12.00;99.90
59067;DHT22;44854;50.838;4.438;2024-01-30T01:07:56;12.00;99.90
59067;DHT22;44854;50.838;4.438;2024-01-30T01:10:21;12.00;99.90
59067;DHT22;44854;50.838;4.438;2024-01-30T01:12:48;12.00;99.90
59067;DHT22;44854;50.838;4.438;2024-01-30T01:15:15;12.10;99.90
59067;DHT22;44854;50.838;4.438;2024-01-30T01:17:41;12.00;99.90
59067;DHT22;44854;50.838;4.438;2024-01-30T01:20:07;12.00;99.90
59067;DHT22;44854;50.838;4.438;2024-01-30T01:22:33;12.00;99.90
59067;DHT22;44854;50.838;4.438;2024-01-30T01:25:00;12.00;99.90
59067;DHT22;44854;50.838;4.438;2024-01-30T01:27:27;12.00;99.90
59067;DHT22;44854;50.838;4.438;2024-01-30T01:29:53;12.10;99.90
59067;DHT22;44854;50.838;4.438;2024-01-30T01:32:19;12.10;99.90
59067;DHT22;44854;50.838;4.438;2024-01-30T01:34:45;12.20;99.90
59067;DHT22;44854;50.838;4.438;2024-01-30T01:37:11;12.30;99.90
59067;DHT22;44854;50.838;4.438;2024-01-30T01:39:36;12.30;99.90
59067;DHT22;44854;50.838;4.438;2024-01-30T01:42:02;12.40;99.90
59067;DHT22;44854;50.838;4.438;2024-01-30T01:44:28;12.30;99.90
59067;DHT22;44854;50.838;4.438;2024-01-30T01:46:54;12.30;99.90
59067;DHT22;44854;50.838;4.438;2024-01-30T01:49:22;12.30;99.90
59067;DHT22;44854;50.838;4.438;2024-01-30T01:51:49;12.30;99.90
59067;DHT22;44854;50.838;4.438;2024-01-30T01:54:15;12.40;99.90
59067;DHT22;44854;50.838;4.438;2024-01-30T01:56:42;12.40;99.90
59067;DHT22;44854;50.838;4.438;2024-01-30T01:59:09;12.40;99.90
59067;DHT22;44854;50.838;4.438;2024-01-30T02:01:37;12.30;99.90
59067;DHT22;44854;50.838;4.438;2024-01-30T02:04:04;12.30;99.90
59067;DHT22;44854;50.838;4.438;2024-01-30T02:06:31;12.30;99.90
59067;DHT22;44854;50.838;4.438;2024-01-30T02:08:57;12.30;99.90
59067;DHT22;44854;50.838;4.438;2024-01-30T02:11:23;12.40;99.90
59067;DHT22;44854;50.838;4.438;2024-01-30T02:13:50;12.50;99.90
59067;DHT22;44854;50.838;4.438;2024-01-30T02:16:16;12.50;99.90
59067;DHT22;44854;50.838;4.438;2024-01-30T02:18:43;12.40;99.90
59067;DHT22;44854;50.838;4.438;2024-01-30T02:21:12;12.40;99.90
59067;DHT22;44854;50.838;4.438;2024-01-30T02:23:38;12.40;99.90
59067;DHT22;44854;50.838;4.438;2024-01-30T02:26:05;12.30;99.90
59067;DHT22;44854;50.838;4.438;2024-01-30T02:28:30;12.30;99.90
59067;DHT22;44854;50.838;4.438;2024-01-30T02:30:56;12.30;99.90
59067;DHT22;44854;50.838;4.438;2024-01-30T02:33:21;12.30;99.90
59067;DHT22;44854;50.838;4.438;2024-01-30T02:35:49;12.30;99.90
59067;DHT22;44854;50.838;4.438;2024-01-30T02:38:15;12.30;99.90
59067;DHT22;44854;50.838;4.438;2024-01-30T02:40:41;12.30;99.90
59067;DHT22;44854;50.838;4.438;2024-01-30T02:43:07;12.50;99.90
59067;DHT22;44854;50.838;4.438;2024-01-30T02:45:34;12.50;99.90
59067;DHT22;44854;50.838;4.438;2024-01-30T02:47:59;12.50;99.90
59067;DHT22;44854;50.838;4.438;2024-01-30T02:50:25;12.40;99.90
59067;DHT22;44854;50.838;4.438;2024-01-30T02:52:51;12.50;99.90
59067;DHT22;44854;50.838;4.438;2024-01-30T02:55:16;12.50;99.90
59067;DHT22;44854;50.838;4.438;2024-01-30T02:57:45;12.50;99.90
59067;DHT22;44854;50.838;4.438;2024-01-30T03:00:11;12.50;99.90
59067;DHT22;44854;50.838;4.438;2024-01-30T03:02:37;12.40;99.90
59067;DHT22;44854;50.838;4.438;2024-01-30T03:05:05;12.40;99.90
59067;DHT22;44854;50.838;4.438;2024-01-30T03:07:30;12.60;99.90
59067;DHT22;44854;50.838;4.438;2024-01-30T03:09:56;12.50;99.90
59067;DHT22;44854;50.838;4.438;2024-01-30T03:12:23;12.30;99.90
59067;DHT22;44854;50.838;4.438;2024-01-30T03:14:49;12.20;99.90
59067;DHT22;44854;50.838;4.438;2024-01-30T03:17:18;12.20;99.90
59067;DHT22;44854;50.838;4.438;2024-01-30T03:19:43;12.30;99.90
59067;DHT22;44854;50.838;4.438;2024-01-30T03:22:09;12.30;99.90
59067;DHT22;44854;50.838;4.438;2024-01-30T03:24:35;12.30;99.90
59067;DHT22;44854;50.838;4.438;2024-01-30T03:27:00;12.50;99.90
59067;DHT22;44854;50.838;4.438;2024-01-30T03:29:26;12.50;99.90
59067;DHT22;44854;50.838;4.438;2024-01-30T03:31:52;12.40;99.90
59067;DHT22;44854;50.838;4.438;2024-01-30T03:34:18;12.40;99.90
59067;DHT22;44854;50.838;4.438;2024-01-30T03:36:43;12.30;99.90
59067;DHT22;44854;50.838;4.438;2024-01-30T03:39:09;12.40;99.90
59067;DHT22;44854;50.838;4.438;2024-01-30T03:41:35;12.30;99.90
59067;DHT22;44854;50.838;4.438;2024-01-30T03:44:00;12.40;99.90
59067;DHT22;44854;50.838;4.438;2024-01-30T03:46:26;12.50;99.90
59067;DHT22;44854;50.838;4.438;2024-01-30T03:48:52;12.50;99.90
59067;DHT22;44854;50.838;4.438;2024-01-30T03:51:18;12.50;99.90
59067;DHT22;44854;50.838;4.438;2024-01-30T03:53:45;12.50;99.90
59067;DHT22;44854;50.838;4.438;2024-01-30T03:56:13;12.50;99.90
59067;DHT22;44854;50.838;4.438;2024-01-30T03:58:39;12.50;99.90
59067;DHT22;44854;50.838;4.438;2024-01-30T04:01:05;12.60;99.90
59067;DHT22;44854;50.838;4.438;2024-01-30T04:03:31;12.60;99.90
59067;DHT22;44854;50.838;4.438;2024-01-30T04:05:56;12.60;99.90
59067;DHT22;44854;50.838;4.438;2024-01-30T04:08:22;12.60;99.90
59067;DHT22;44854;50.838;4.438;2024-01-30T04:10:48;12.50;99.90
59067;DHT22;44854;50.838;4.438;2024-01-30T04:13:13;12.50;99.90
59067;DHT22;44854;50.838;4.438;2024-01-30T04:15:39;12.50;99.90
59067;DHT22;44854;50.838;4.438;2024-01-30T04:18:05;12.50;99.90
59067;DHT22;44854;50.838;4.438;2024-01-30T04:20:31;12.50;99.90
59067;DHT22;44854;50.838;4.438;2024-01-30T04:22:57;12.60;99.90
59067;DHT22;44854;50.838;4.438;2024-01-30T04:25:22;12.60;99.90
59067;DHT22;44854;50.838;4.438;2024-01-30T04:27:48;12.60;99.90
59067;DHT22;44854;50.838;4.438;2024-01-30T04:30:14;12.50;99.90
59067;DHT22;44854;50.838;4.438;2024-01-30T04:32:39;12.40;99.90
59067;DHT22;44854;50.838;4.438;2024-01-30T04:35:05;12.50;99.90
59067;DHT22;44854;50.838;4.438;2024-01-30T04:37:31;12.50;99.90
59067;DHT22;44854;50.838;4.438;2024-01-30T04:39:57;12.60;99.90
59067;DHT22;44854;50.838;4.438;2024-01-30T04:42:23;12.50;99.90
59067;DHT22;44854;50.838;4.438;2024-01-30T04:44:49;12.60;99.90
59067;DHT22;44854;50.838;4.438;2024-01-30T04:47:15;12.50;99.90
59067;DHT22;44854;50.838;4.438;2024-01-30T04:49:40;12.60;99.90
59067;DHT22;44854;50.838;4.438;2024-01-30T04:52:07;12.50;99.90
59067;DHT22;44854;50.838;4.438;2024-01-30T04:54:33;12.70;99.90
59067;DHT22;44854;50.838;4.438;2024-01-30T04:57:00;12.70;99.90
59067;DHT22;44854;50.838;4.438;2024-01-30T04:59:25;12.70;99.90
59067;DHT22;44854;50.838;4.438;2024-01-30T05:01:51;12.60;99.90
59067;DHT22;44854;50.838;4.438;2024-01-30T05:04:17;12.60;99.90
59067;DHT22;44854;50.838;4.438;2024-01-30T05:06:43;12.60;99.90
59067;DHT22;44854;50.838;4.438;2024-01-30T05:09:09;12.50;99.90
59067;DHT22;44854;50.838;4.438;2024-01-30T05:11:40;12.50;99.90
59067;DHT22;44854;50.838;4.438;2024-01-30T05:14:06;12.60;99.90
59067;DHT22;44854;50.838;4.438;2024-01-30T05:16:32;12.50;99.90
59067;DHT22;44854;50.838;4.438;2024-01-30T05:18:58;12.50;99.90
59067;DHT22;44854;50.838;4.438;2024-01-30T05:21:24;12.50;99.90
59067;DHT22;44854;50.838;4.438;2024-01-30T05:23:50;12.50;99.90
59067;DHT22;44854;50.838;4.438;2024-01-30T05:26:15;12.60;99.90
59067;DHT22;44854;50.838;4.438;2024-01-30T05:28:41;12.50;99.90
59067;DHT22;44854;50.838;4.438;2024-01-30T05:31:08;12.50;99.90
59067;DHT22;44854;50.838;4.438;2024-01-30T05:33:34;12.50;99.90
59067;DHT22;44854;50.838;4.438;2024-01-30T05:35:59;12.40;99.90
59067;DHT22;44854;50.838;4.438;2024-01-30T05:38:25;12.40;99.90
59067;DHT22;44854;50.838;4.438;2024-01-30T05:40:50;12.40;99.90
59067;DHT22;44854;50.838;4.438;2024-01-30T05:43:16;12.30;99.90
59067;DHT22;44854;50.838;4.438;2024-01-30T05:45:42;12.50;99.90
59067;DHT22;44854;50.838;4.438;2024-01-30T05:48:07;12.50;99.90
59067;DHT22;44854;50.838;4.438;2024-01-30T05:50:33;12.30;99.90
59067;DHT22;44854;50.838;4.438;2024-01-30T05:52:59;12.30;99.90
59067;DHT22;44854;50.838;4.438;2024-01-30T05:55:24;12.20;99.90
59067;DHT22;44854;50.838;4.438;2024-01-30T05:57:50;12.30;99.90
59067;DHT22;44854;50.838;4.438;2024-01-30T06:00:17;12.30;99.90
59067;DHT22;44854;50.838;4.438;2024-01-30T06:02:43;12.30;99.90
59067;DHT22;44854;50.838;4.438;2024-01-30T06:05:09;12.30;99.90
59067;DHT22;44854;50.838;4.438;2024-01-30T06:07:35;12.40;99.90
59067;DHT22;44854;50.838;4.438;2024-01-30T06:10:00;12.40;99.90
59067;DHT22;44854;50.838;4.438;2024-01-30T06:12:27;12.30;99.90
59067;DHT22;44854;50.838;4.438;2024-01-30T06:14:53;12.30;99.90
59067;DHT22;44854;50.838;4.438;2024-01-30T06:17:22;12.30;99.90
59067;DHT22;44854;50.838;4.438;2024-01-30T06:19:51;12.30;99.90
59067;DHT22;44854;50.838;4.438;2024-01-30T06:22:16;12.30;99.90
59067;DHT22;44854;50.838;4.438;2024-01-30T06:24:42;12.20;99.90
59067;DHT22;44854;50.838;4.438;2024-01-30T06:27:10;12.10;99.90
59067;DHT22;44854;50.838;4.438;2024-01-30T06:29:36;12.10;99.90
59067;DHT22;44854;50.838;4.438;2024-01-30T06:32:01;12.10;99.90
59067;DHT22;44854;50.838;4.438;2024-01-30T06:34:29;12.10;99.90
59067;DHT22;44854;50.838;4.438;2024-01-30T06:36:55;12.10;99.90
59067;DHT22;44854;50.838;4.438;2024-01-30T06:39:20;12.10;99.90
59067;DHT22;44854;50.838;4.438;2024-01-30T06:41:46;12.20;99.90
59067;DHT22;44854;50.838;4.438;2024-01-30T06:44:12;12.20;99.90
59067;DHT22;44854;50.838;4.438;2024-01-30T06:46:38;12.20;99.90
59067;DHT22;44854;50.838;4.438;2024-01-30T06:49:04;12.30;99.90
59067;DHT22;44854;50.838;4.438;2024-01-30T06:51:30;12.20;99.90
59067;DHT22;44854;50.838;4.438;2024-01-30T06:53:56;12.20;99.90
59067;DHT22;44854;50.838;4.438;2024-01-30T06:56:22;12.20;99.90
59067;DHT22;44854;50.838;4.438;2024-01-30T06:58:50;12.20;99.90
59067;DHT22;44854;50.838;4.438;2024-01-30T07:01:16;12.30;99.90
59067;DHT22;44854;50.838;4.438;2024-01-30T07:03:42;12.20;99.90
59067;DHT22;44854;50.838;4.438;2024-01-30T07:06:08;12.20;99.90
59067;DHT22;44854;50.838;4.438;2024-01-30T07:08:34;12.20;99.90
59067;DHT22;44854;50.838;4.438;2024-01-30T07:11:00;12.20;99.90
59067;DHT22;44854;50.838;4.438;2024-01-30T07:13:27;12.30;99.90
59067;DHT22;44854;50.838;4.438;2024-01-30T07:15:53;12.30;99.90
59067;DHT22;44854;50.838;4.438;2024-01-30T07:18:19;12.20;99.90
59067;DHT22;44854;50.838;4.438;2024-01-30T07:20:45;12.20;99.90
59067;DHT22;44854;50.838;4.438;2024-01-30T07:23:15;12.30;99.90
59067;DHT22;44854;50.838;4.438;2024-01-30T07:25:45;12.30;99.90
59067;DHT22;44854;50.838;4.438;2024-01-30T07:28:11;12.40;99.90
59067;DHT22;44854;50.838;4.438;2024-01-30T07:30:42;12.40;99.90
59067;DHT22;44854;50.838;4.438;2024-01-30T07:33:08;12.50;99.90
59067;DHT22;44854;50.838;4.438;2024-01-30T07:35:34;12.50;99.90
59067;DHT22;44854;50.838;4.438;2024-01-30T07:38:00;12.60;99.90
59067;DHT22;44854;50.838;4.438;2024-01-30T07:40:26;12.40;99.90
59067;DHT22;44854;50.838;4.438;2024-01-30T07:42:53;12.50;99.90
59067;DHT22;44854;50.838;4.438;2024-01-30T07:45:20;12.60;99.90
59067;DHT22;44854;50.838;4.438;2024-01-30T07:47:50;12.60;99.90
59067;DHT22;44854;50.838;4.438;2024-01-30T07:50:16;12.60;99.90
59067;DHT22;44854;50.838;4.438;2024-01-30T07:52:42;12.60;99.90
59067;DHT22;44854;50.838;4.438;2024-01-30T07:55:09;12.70;99.90
59067;DHT22;44854;50.838;4.438;2024-01-30T07:57:35;12.70;99.90
59067;DHT22;44854;50.838;4.438;2024-01-30T08:00:01;12.70;99.90
59067;DHT22;44854;50.838;4.438;2024-01-30T08:02:28;12.60;99.90
59067;DHT22;44854;50.838;4.438;2024-01-30T08:04:53;12.60;99.90
59067;DHT22;44854;50.838;4.438;2024-01-30T08:07:19;12.50;99.90
59067;DHT22;44854;50.838;4.438;2024-01-30T08:09:47;12.70;99.90
59067;DHT22;44854;50.838;4.438;2024-01-30T08:12:13;12.70;99.90
59067;DHT22;44854;50.838;4.438;2024-01-30T08:14:39;12.70;99.90
59067;DHT22;44854;50.838;4.438;2024-01-30T08:17:07;12.60;99.90
59067;DHT22;44854;50.838;4.438;2024-01-30T08:19:33;12.60;99.90
59067;DHT22;44854;50.838;4.438;2024-01-30T08:21:59;12.70;99.90
59067;DHT22;44854;50.838;4.438;2024-01-30T08:24:25;12.70;99.90
59067;DHT22;44854;50.838;4.438;2024-01-30T08:26:51;12.70;99.90
59067;DHT22;44854;50.838;4.438;2024-01-30T08:29:16;12.80;99.90
59067;DHT22;44854;50.838;4.438;2024-01-30T08:31:43;12.80;99.90
59067;DHT22;44854;50.838;4.438;2024-01-30T08:34:11;12.70;99.90
59067;DHT22;44854;50.838;4.438;2024-01-30T08:36:37;12.90;99.90
59067;DHT22;44854;50.838;4.438;2024-01-30T08:39:02;12.90;99.90
59067;DHT22;44854;50.838;4.438;2024-01-30T08:41:28;12.90;99.90
59067;DHT22;44854;50.838;4.438;2024-01-30T08:43:54;12.90;99.90
59067;DHT22;44854;50.838;4.438;2024-01-30T08:46:19;13.00;99.90
59067;DHT22;44854;50.838;4.438;2024-01-30T08:48:46;13.00;99.90
59067;DHT22;44854;50.838;4.438;2024-01-30T08:51:13;13.10;99.90
59067;DHT22;44854;50.838;4.438;2024-01-30T08:53:39;13.10;99.90
59067;DHT22;44854;50.838;4.438;2024-01-30T08:56:06;13.10;99.90
59067;DHT22;44854;50.838;4.438;2024-01-30T08:58:32;12.90;99.90
59067;DHT22;44854;50.838;4.438;2024-01-30T09:00:58;12.90;99.90
59067;DHT22;44854;50.838;4.438;2024-01-30T09:03:23;12.80;99.90
59067;DHT22;44854;50.838;4.438;2024-01-30T09:05:51;12.80;99.90
59067;DHT22;44854;50.838;4.438;2024-01-30T09:08:17;12.80;99.90
59067;DHT22;44854;50.838;4.438;2024-01-30T09:10:43;12.90;99.90
59067;DHT22;44854;50.838;4.438;2024-01-30T09:13:09;12.90;99.90
59067;DHT22;44854;50.838;4.438;2024-01-30T09:15:35;12.90;99.90
59067;DHT22;44854;50.838;4.438;2024-01-30T09:18:01;12.80;99.90
59067;DHT22;44854;50.838;4.438;2024-01-30T09:20:26;12.80;99.90
59067;DHT22;44854;50.838;4.438;2024-01-30T09:22:52;12.70;99.90
59067;DHT22;44854;50.838;4.438;2024-01-30T09:25:18;12.70;99.90
59067;DHT22;44854;50.838;4.438;2024-01-30T09:27:44;12.80;99.90
59067;DHT22;44854;50.838;4.438;2024-01-30T09:30:10;12.80;99.90
59067;DHT22;44854;50.838;4.438;2024-01-30T09:32:36;12.90;99.90
59067;DHT22;44854;50.838;4.438;2024-01-30T09:35:04;12.90;99.90
59067;DHT22;44854;50.838;4.438;2024-01-30T09:37:30;12.80;99.90
59067;DHT22;44854;50.838;4.438;2024-01-30T09:39:55;12.90;99.90
59067;DHT22;44854;50.838;4.438;2024-01-30T09:42:30;13.20;99.90
59067;DHT22;44854;50.838;4.438;2024-01-30T09:44:58;13.00;99.90
59067;DHT22;44854;50.838;4.438;2024-01-30T09:47:24;12.90;99.90
59067;DHT22;44854;50.838;4.438;2024-01-30T09:49:51;12.90;99.90
59067;DHT22;44854;50.838;4.438;2024-01-30T09:52:16;12.80;99.90
59067;DHT22;44854;50.838;4.438;2024-01-30T09:54:44;12.90;99.90
59067;DHT22;44854;50.838;4.438;2024-01-30T09:57:11;12.70;99.90
59067;DHT22;44854;50.838;4.438;2024-01-30T09:59:37;12.50;99.90
59067;DHT22;44854;50.838;4.438;2024-01-30T10:02:03;12.40;99.90
59067;DHT22;44854;50.838;4.438;2024-01-30T10:04:30;12.40;99.90
59067;DHT22;44854;50.838;4.438;2024-01-30T10:06:56;12.40;99.90
59067;DHT22;44854;50.838;4.438;2024-01-30T10:09:24;12.40;99.90
59067;DHT22;44854;50.838;4.438;2024-01-30T10:11:51;12.50;99.90
59067;DHT22;44854;50.838;4.438;2024-01-30T10:14:17;12.70;99.90
59067;DHT22;44854;50.838;4.438;2024-01-30T10:16:42;12.60;99.90
59067;DHT22;44854;50.838;4.438;2024-01-30T10:19:10;12.60;99.90
59067;DHT22;44854;50.838;4.438;2024-01-30T10:21:36;12.40;99.90
59067;DHT22;44854;50.838;4.438;2024-01-30T10:24:02;12.50;99.90
59067;DHT22;44854;50.838;4.438;2024-01-30T10:26:28;12.50;99.90
59067;DHT22;44854;50.838;4.438;2024-01-30T10:28:55;12.60;99.90
59067;DHT22;44854;50.838;4.438;2024-01-30T10:31:20;12.50;99.90
59067;DHT22;44854;50.838;4.438;2024-01-30T10:33:46;12.60;99.90
59067;DHT22;44854;50.838;4.438;2024-01-30T10:36:14;12.60;99.90
59067;DHT22;44854;50.838;4.438;2024-01-30T10:38:43;12.50;99.90
59067;DHT22;44854;50.838;4.438;2024-01-30T10:41:10;12.50;99.90
59067;DHT22;44854;50.838;4.438;2024-01-30T10:43:41;12.60;99.90
59067;DHT22;44854;50.838;4.438;2024-01-30T10:46:20;12.60;99.90
59067;DHT22;44854;50.838;4.438;2024-01-30T10:48:56;12.50;99.90
59067;DHT22;44854;50.838;4.438;2024-01-30T10:51:23;12.30;99.90
59067;DHT22;44854;50.838;4.438;2024-01-30T10:53:49;12.30;99.90
59067;DHT22;44854;50.838;4.438;2024-01-30T10:56:16;12.30;99.90
59067;DHT22;44854;50.838;4.438;2024-01-30T10:58:42;12.30;99.90
59067;DHT22;44854;50.838;4.438;2024-01-30T11:01:08;12.30;99.90
59067;DHT22;44854;50.838;4.438;2024-01-30T11:03:34;12.20;99.90
59067;DHT22;44854;50.838;4.438;2024-01-30T11:06:02;12.20;99.90
59067;DHT22;44854;50.838;4.438;2024-01-30T11:08:31;12.30;99.90
59067;DHT22;44854;50.838;4.438;2024-01-30T11:10:57;12.30;99.90
59067;DHT22;44854;50.838;4.438;2024-01-30T11:13:29;12.30;99.90
59067;DHT22;44854;50.838;4.438;2024-01-30T11:15:55;12.10;99.90
59067;DHT22;44854;50.838;4.438;2024-01-30T11:18:30;12.00;99.90
59067;DHT22;44854;50.838;4.438;2024-01-30T11:20:58;12.00;99.90
59067;DHT22;44854;50.838;4.438;2024-01-30T11:23:25;11.90;99.90
59067;DHT22;44854;50.838;4.438;2024-01-30T11:25:52;11.80;99.90
59067;DHT22;44854;50.838;4.438;2024-01-30T11:28:18;11.80;99.90
59067;DHT22;44854;50.838;4.438;2024-01-30T11:30:44;12.00;99.90
59067;DHT22;44854;50.838;4.438;2024-01-30T11:33:13;11.90;99.90
59067;DHT22;44854;50.838;4.438;2024-01-30T11:38:10;11.80;99.90
59067;DHT22;44854;50.838;4.438;2024-01-30T11:40:38;11.70;99.90
59067;DHT22;44854;50.838;4.438;2024-01-30T11:43:06;11.60;99.90
59067;DHT22;44854;50.838;4.438;2024-01-30T11:45:33;11.60;99.90
59067;DHT22;44854;50.838;4.438;2024-01-30T11:47:59;11.60;99.90
59067;DHT22;44854;50.838;4.438;2024-01-30T11:50:32;11.70;99.90
59067;DHT22;44854;50.838;4.438;2024-01-30T11:52:59;11.80;99.90
59067;DHT22;44854;50.838;4.438;2024-01-30T11:55:25;11.90;99.90
59067;DHT22;44854;50.838;4.438;2024-01-30T11:57:54;11.90;99.90
59067;DHT22;44854;50.838;4.438;2024-01-30T12:00:20;11.90;99.90
59067;DHT22;44854;50.838;4.438;2024-01-30T12:02:53;12.00;99.90
59067;DHT22;44854;50.838;4.438;2024-01-30T12:05:28;12.00;99.90
59067;DHT22;44854;50.838;4.438;2024-01-30T12:07:55;12.00;99.90
59067;DHT22;44854;50.838;4.438;2024-01-30T12:10:24;12.00;99.90
59067;DHT22;44854;50.838;4.438;2024-01-30T12:12:50;12.10;99.90
59067;DHT22;44854;50.838;4.438;2024-01-30T12:15:17;12.20;99.90
59067;DHT22;44854;50.838;4.438;2024-01-30T12:17:43;12.00;99.90
59067;DHT22;44854;50.838;4.438;2024-01-30T12:20:14;11.90;99.90
59067;DHT22;44854;50.838;4.438;2024-01-30T12:22:42;11.80;99.90
59067;DHT22;44854;50.838;4.438;2024-01-30T12:27:34;11.60;99.90
59067;DHT22;44854;50.838;4.438;2024-01-30T12:30:00;11.50;99.90
59067;DHT22;44854;50.838;4.438;2024-01-30T12:32:26;11.50;99.90
59067;DHT22;44854;50.838;4.438;2024-01-30T12:34:55;11.50;99.90
59067;DHT22;44854;50.838;4.438;2024-01-30T12:37:22;11.60;99.90
59067;DHT22;44854;50.838;4.438;2024-01-30T12:39:51;11.70;99.90
59067;DHT22;44854;50.838;4.438;2024-01-30T12:42:17;11.80;99.90
59067;DHT22;44854;50.838;4.438;2024-01-30T12:44:43;12.00;99.90
59067;DHT22;44854;50.838;4.438;2024-01-30T12:47:09;12.00;99.90
59067;DHT22;44854;50.838;4.438;2024-01-30T12:49:35;11.90;99.90
59067;DHT22;44854;50.838;4.438;2024-01-30T12:52:01;11.80;99.90
59067;DHT22;44854;50.838;4.438;2024-01-30T12:54:27;11.90;99.90
59067;DHT22;44854;50.838;4.438;2024-01-30T12:56:53;11.80;99.90
59067;DHT22;44854;50.838;4.438;2024-01-30T12:59:18;11.70;99.90
59067;DHT22;44854;50.838;4.438;2024-01-30T13:01:44;11.70;99.90
59067;DHT22;44854;50.838;4.438;2024-01-30T13:04:11;11.60;99.90
59067;DHT22;44854;50.838;4.438;2024-01-30T13:06:37;11.60;99.90
59067;DHT22;44854;50.838;4.438;2024-01-30T13:09:03;11.60;99.90
59067;DHT22;44854;50.838;4.438;2024-01-30T13:11:28;11.70;99.90
59067;DHT22;44854;50.838;4.438;2024-01-30T13:13:54;11.70;99.90
59067;DHT22;44854;50.838;4.438;2024-01-30T13:16:20;11.70;99.90
59067;DHT22;44854;50.838;4.438;2024-01-30T13:18:45;11.80;99.90
59067;DHT22;44854;50.838;4.438;2024-01-30T13:21:11;11.90;99.90
59067;DHT22;44854;50.838;4.438;2024-01-30T13:23:36;11.90;99.90
59067;DHT22;44854;50.838;4.438;2024-01-30T13:26:02;11.80;99.90
59067;DHT22;44854;50.838;4.438;2024-01-30T13:28:28;11.70;99.90
59067;DHT22;44854;50.838;4.438;2024-01-30T13:30:53;11.80;99.90
59067;DHT22;44854;50.838;4.438;2024-01-30T13:33:19;11.80;99.90
59067;DHT22;44854;50.838;4.438;2024-01-30T13:35:45;11.90;99.90
59067;DHT22;44854;50.838;4.438;2024-01-30T13:38:11;11.90;99.90
59067;DHT22;44854;50.838;4.438;2024-01-30T13:40:37;11.80;99.90
59067;DHT22;44854;50.838;4.438;2024-01-30T13:43:02;11.80;99.90
59067;DHT22;44854;50.838;4.438;2024-01-30T13:45:28;11.80;99.90
59067;DHT22;44854;50.838;4.438;2024-01-30T13:47:54;11.80;99.90
59067;DHT22;44854;50.838;4.438;2024-01-30T13:50:19;11.80;99.90
59067;DHT22;44854;50.838;4.438;2024-01-30T13:52:45;11.70;99.90
59067;DHT22;44854;50.838;4.438;2024-01-30T13:55:11;11.70;99.90
59067;DHT22;44854;50.838;4.438;2024-01-30T13:57:37;11.70;99.90
59067;DHT22;44854;50.838;4.438;2024-01-30T14:00:04;11.80;99.90
59067;DHT22;44854;50.838;4.438;2024-01-30T14:02:32;11.80;99.90
59067;DHT22;44854;50.838;4.438;2024-01-30T14:04:58;11.90;99.90
59067;DHT22;44854;50.838;4.438;2024-01-30T14:07:24;11.80;99.90
59067;DHT22;44854;50.838;4.438;2024-01-30T14:09:51;11.80;99.90
59067;DHT22;44854;50.838;4.438;2024-01-30T14:12:17;11.80;99.90
59067;DHT22;44854;50.838;4.438;2024-01-30T14:14:42;11.80;99.90
59067;DHT22;44854;50.838;4.438;2024-01-30T14:17:08;11.70;99.90
59067;DHT22;44854;50.838;4.438;2024-01-30T14:19:35;11.70;99.90
59067;DHT22;44854;50.838;4.438;2024-01-30T14:22:01;11.60;99.90
59067;DHT22;44854;50.838;4.438;2024-01-30T14:24:27;11.60;99.90
59067;DHT22;44854;50.838;4.438;2024-01-30T14:26:53;11.70;99.90
59067;DHT22;44854;50.838;4.438;2024-01-30T14:29:19;11.70;99.90
59067;DHT22;44854;50.838;4.438;2024-01-30T14:31:44;11.70;99.90
59067;DHT22;44854;50.838;4.438;2024-01-30T14:34:10;11.70;99.90
59067;DHT22;44854;50.838;4.438;2024-01-30T14:36:39;11.70;99.90
59067;DHT22;44854;50.838;4.438;2024-01-30T14:39:04;11.60;99.90
59067;DHT22;44854;50.838;4.438;2024-01-30T14:41:32;11.60;99.90
59067;DHT22;44854;50.838;4.438;2024-01-30T14:43:58;11.60;99.90
59067;DHT22;44854;50.838;4.438;2024-01-30T14:46:24;11.60;99.90
59067;DHT22;44854;50.838;4.438;2024-01-30T14:48:49;11.60;99.90
59067;DHT22;44854;50.838;4.438;2024-01-30T14:51:17;11.40;99.90
59067;DHT22;44854;50.838;4.438;2024-01-30T14:53:43;11.40;99.90
59067;DHT22;44854;50.838;4.438;2024-01-30T14:56:10;11.60;99.90
59067;DHT22;44854;50.838;4.438;2024-01-30T14:58:37;11.60;99.90
59067;DHT22;44854;50.838;4.438;2024-01-30T15:01:03;11.50;99.90
59067;DHT22;44854;50.838;4.438;2024-01-30T15:03:29;11.50;99.90
59067;DHT22;44854;50.838;4.438;2024-01-30T15:05:55;11.40;99.90
59067;DHT22;44854;50.838;4.438;2024-01-30T15:08:21;11.20;99.90
59067;DHT22;44854;50.838;4.438;2024-01-30T15:10:47;11.30;99.90
59067;DHT22;44854;50.838;4.438;2024-01-30T15:13:12;11.20;99.90
59067;DHT22;44854;50.838;4.438;2024-01-30T15:15:38;11.20;99.90
59067;DHT22;44854;50.838;4.438;2024-01-30T15:18:04;11.20;99.90
59067;DHT22;44854;50.838;4.438;2024-01-30T15:20:30;11.20;99.90
59067;DHT22;44854;50.838;4.438;2024-01-30T15:22:57;11.20;99.90
59067;DHT22;44854;50.838;4.438;2024-01-30T15:25:23;11.10;99.90
59067;DHT22;44854;50.838;4.438;2024-01-30T15:27:48;11.00;99.90
59067;DHT22;44854;50.838;4.438;2024-01-30T15:30:14;11.00;99.90